createdAt,value
2019-04-07T00:00:34.278Z,1017.23
2019-04-07T00:01:34.416Z,1017.25
2019-04-07T00:02:34.613Z,1017.19
2019-04-07T00:03:34.584Z,1017.19
2019-04-07T00:04:34.136Z,1017.18
2019-04-07T00:05:34.558Z,1017.15
2019-04-07T00:06:34.146Z,1017.12
2019-04-07T00:07:34.554Z,1017.05
2019-04-07T00:08:34.157Z,1017.05
2019-04-07T00:09:34.403Z,1017.07
2019-04-07T00:10:34.315Z,1017.03
2019-04-07T00:11:34.605Z,1017.03
2019-04-07T00:12:34.602Z,1017.05
2019-04-07T00:13:34.182Z,1017.01
2019-04-07T00:14:34.188Z,1016.98
2019-04-07T00:15:34.482Z,1016.99
2019-04-07T00:16:34.201Z,1016.97
2019-04-07T00:17:34.203Z,1016.98
2019-04-07T00:18:34.208Z,1016.99
2019-04-07T00:19:34.216Z,1016.94
2019-04-07T00:20:34.221Z,1016.92
2019-04-07T00:21:34.224Z,1017.01
2019-04-07T00:22:34.541Z,1016.97
2019-04-07T00:23:34.235Z,1016.96
2019-04-07T00:24:34.316Z,1016.96
2019-04-07T00:25:34.244Z,1016.94
2019-04-07T00:26:34.251Z,1016.90
2019-04-07T00:27:34.257Z,1016.90
2019-04-07T00:28:34.301Z,1016.93
2019-04-07T00:29:34.424Z,1016.91
2019-04-07T00:30:34.271Z,1016.89
2019-04-07T00:31:34.277Z,1016.89
2019-04-07T00:32:35.003Z,1016.85
2019-04-07T00:33:34.288Z,1016.84
2019-04-07T00:34:34.719Z,1016.83
2019-04-07T00:35:34.297Z,1016.82
2019-04-07T00:36:34.309Z,1016.85
2019-04-07T00:37:34.309Z,1016.84
2019-04-07T00:38:34.703Z,1016.81
2019-04-07T00:39:34.584Z,1016.79
2019-04-07T00:40:34.900Z,1016.80
2019-04-07T00:41:34.329Z,1016.82
2019-04-07T00:42:34.711Z,1016.82
2019-04-07T00:43:34.341Z,1016.81
2019-04-07T00:44:34.436Z,1016.82
2019-04-07T00:45:35.323Z,1016.79
2019-04-07T00:46:34.466Z,1016.77
2019-04-07T00:47:34.853Z,1016.78
2019-04-07T00:48:34.367Z,1016.76
2019-04-07T00:49:34.765Z,1016.73
2019-04-07T00:50:34.724Z,1016.75
2019-04-07T00:51:34.382Z,1016.75
2019-04-07T00:52:34.937Z,1016.75
2019-04-07T00:53:34.392Z,1016.74
2019-04-07T00:54:34.404Z,1016.74
2019-04-07T00:55:34.404Z,1016.71
2019-04-07T00:56:34.618Z,1016.71
2019-04-07T00:57:34.414Z,1016.67
2019-04-07T00:58:34.426Z,1016.68
2019-04-07T00:59:35.148Z,1016.67
2019-04-07T01:00:34.627Z,1016.67
2019-04-07T01:01:35.030Z,1016.66
2019-04-07T01:02:34.441Z,1016.64
2019-04-07T01:03:34.919Z,1016.66
2019-04-07T01:04:34.451Z,1016.65
2019-04-07T01:05:38.474Z,1016.62
2019-04-07T01:06:34.574Z,1016.58
2019-04-07T01:07:34.530Z,1016.58
2019-04-07T01:08:34.675Z,1016.55
2019-04-07T01:09:34.481Z,1016.53
2019-04-07T01:10:34.812Z,1016.52
2019-04-07T01:11:34.490Z,1016.51
2019-04-07T01:12:34.662Z,1016.48
2019-04-07T01:13:34.650Z,1016.48
2019-04-07T01:14:34.504Z,1016.49
2019-04-07T01:15:35.195Z,1016.42
2019-04-07T01:16:35.248Z,1016.48
2019-04-07T01:17:34.529Z,1016.46
2019-04-07T01:18:35.474Z,1016.42
2019-04-07T01:19:34.529Z,1016.45
2019-04-07T01:20:34.534Z,1016.41
2019-04-07T01:21:34.629Z,1016.38
2019-04-07T01:22:34.714Z,1016.36
2019-04-07T01:23:34.772Z,1016.33
2019-04-07T01:24:35.221Z,1016.34
2019-04-07T01:25:34.614Z,1016.34
2019-04-07T01:26:34.581Z,1016.33
2019-04-07T01:27:34.641Z,1016.35
2019-04-07T01:28:35.323Z,1016.29
2019-04-07T01:29:35.336Z,1016.32
2019-04-07T01:30:34.843Z,1016.28
2019-04-07T01:31:35.179Z,1016.32
2019-04-07T01:32:34.672Z,1016.34
2019-04-07T01:33:34.602Z,1016.34
2019-04-07T01:34:35.035Z,1016.26
2019-04-07T01:35:44.953Z,1016.28
2019-04-07T01:36:34.618Z,1016.30
2019-04-07T01:37:35.234Z,1016.25
2019-04-07T01:38:34.627Z,1016.23
2019-04-07T01:39:34.968Z,1016.23
2019-04-07T01:40:35.195Z,1016.18
2019-04-07T01:41:34.913Z,1016.19
2019-04-07T01:42:34.649Z,1016.20
2019-04-07T01:43:34.654Z,1016.18
2019-04-07T01:44:34.662Z,1016.12
2019-04-07T01:45:34.666Z,1016.14
2019-04-07T01:46:35.378Z,1016.11
2019-04-07T01:47:35.383Z,1016.11
2019-04-07T01:48:34.683Z,1016.12
2019-04-07T01:49:34.806Z,1016.12
2019-04-07T01:50:34.691Z,1016.09
2019-04-07T01:51:34.934Z,1016.06
2019-04-07T01:52:34.850Z,1016.05
2019-04-07T01:53:34.706Z,1016.05
2019-04-07T01:54:34.711Z,1016.02
2019-04-07T01:55:34.718Z,1016.00
2019-04-07T01:56:34.722Z,1016.01
2019-04-07T01:57:35.416Z,1016.02
2019-04-07T01:58:34.841Z,1016.00
2019-04-07T01:59:35.468Z,1015.98
2019-04-07T02:00:34.747Z,1015.95
2019-04-07T02:01:34.747Z,1015.98
2019-04-07T02:02:34.754Z,1015.93
2019-04-07T02:03:35.691Z,1015.92
2019-04-07T02:04:34.767Z,1015.91
2019-04-07T02:05:35.285Z,1015.91
2019-04-07T02:06:34.932Z,1015.92
2019-04-07T02:07:34.783Z,1015.87
2019-04-07T02:08:35.357Z,1015.86
2019-04-07T02:09:34.790Z,1015.85
2019-04-07T02:10:35.155Z,1015.84
2019-04-07T02:11:35.088Z,1015.82
2019-04-07T02:12:35.156Z,1015.79
2019-04-07T02:13:35.080Z,1015.82
2019-04-07T02:14:35.421Z,1015.75
2019-04-07T02:15:34.823Z,1015.78
2019-04-07T02:16:35.599Z,1015.73
2019-04-07T02:17:35.146Z,1015.73
2019-04-07T02:18:35.417Z,1015.71
2019-04-07T02:19:34.842Z,1015.70
2019-04-07T02:20:35.362Z,1015.72
2019-04-07T02:21:35.000Z,1015.71
2019-04-07T02:22:35.439Z,1015.75
2019-04-07T02:23:34.862Z,1015.71
2019-04-07T02:24:35.601Z,1015.70
2019-04-07T02:25:35.122Z,1015.72
2019-04-07T02:26:35.099Z,1015.66
2019-04-07T02:27:34.897Z,1015.65
2019-04-07T02:28:35.042Z,1015.66
2019-04-07T02:29:34.892Z,1015.66
2019-04-07T02:30:35.249Z,1015.65
2019-04-07T02:31:35.844Z,1015.63
2019-04-07T02:32:35.648Z,1015.63
2019-04-07T02:33:34.963Z,1015.61
2019-04-07T02:34:35.959Z,1015.61
2019-04-07T02:35:34.926Z,1015.57
2019-04-07T02:36:35.755Z,1015.62
2019-04-07T02:37:35.232Z,1015.57
2019-04-07T02:38:34.943Z,1015.61
2019-04-07T02:39:34.947Z,1015.60
2019-04-07T02:40:34.953Z,1015.60
2019-04-07T02:41:34.956Z,1015.55
2019-04-07T02:42:34.963Z,1015.56
2019-04-07T02:43:34.999Z,1015.53
2019-04-07T02:44:34.977Z,1015.53
2019-04-07T02:45:34.978Z,1015.58
2019-04-07T02:46:35.182Z,1015.53
2019-04-07T02:47:35.311Z,1015.55
2019-04-07T02:48:35.217Z,1015.56
2019-04-07T02:49:35.595Z,1015.53
2019-04-07T02:50:35.030Z,1015.54
2019-04-07T02:51:35.138Z,1015.49
2019-04-07T02:52:35.709Z,1015.54
2019-04-07T02:53:35.053Z,1015.49
2019-04-07T02:54:36.016Z,1015.49
2019-04-07T02:55:35.571Z,1015.47
2019-04-07T02:56:35.697Z,1015.44
2019-04-07T02:57:35.897Z,1015.44
2019-04-07T02:58:35.852Z,1015.44
2019-04-07T02:59:35.347Z,1015.42
2019-04-07T03:00:36.325Z,1015.38
2019-04-07T03:01:35.150Z,1015.43
2019-04-07T03:02:35.069Z,1015.39
2019-04-07T03:03:35.070Z,1015.38
2019-04-07T03:04:35.314Z,1015.37
2019-04-07T03:05:36.086Z,1015.34
2019-04-07T03:06:43.966Z,1015.34
2019-04-07T03:07:35.711Z,1015.31
2019-04-07T03:08:35.655Z,1015.30
2019-04-07T03:09:35.099Z,1015.30
2019-04-07T03:10:35.200Z,1015.31
2019-04-07T03:11:35.405Z,1015.28
2019-04-07T03:12:35.395Z,1015.30
2019-04-07T03:13:35.138Z,1015.26
2019-04-07T03:14:35.127Z,1015.20
2019-04-07T03:15:35.134Z,1015.26
2019-04-07T03:16:35.503Z,1015.20
2019-04-07T03:17:36.052Z,1015.18
2019-04-07T03:18:35.855Z,1015.23
2019-04-07T03:19:35.447Z,1015.20
2019-04-07T03:20:36.159Z,1015.19
2019-04-07T03:21:36.165Z,1015.17
2019-04-07T03:22:35.169Z,1015.17
2019-04-07T03:23:36.386Z,1015.13
2019-04-07T03:24:35.178Z,1015.10
2019-04-07T03:25:35.650Z,1015.11
2019-04-07T03:26:35.189Z,1015.05
2019-04-07T03:27:36.119Z,1015.04
2019-04-07T03:28:35.202Z,1015.07
2019-04-07T03:29:36.400Z,1015.05
2019-04-07T03:30:37.872Z,1015.04
2019-04-07T03:31:36.560Z,1015.02
2019-04-07T03:32:37.834Z,1015.01
2019-04-07T03:33:39.581Z,1015.01
2019-04-07T03:34:36.230Z,1014.99
2019-04-07T03:35:36.036Z,1014.99
2019-04-07T03:37:02.966Z,1015.00
2019-04-07T03:37:42.807Z,1014.94
2019-04-07T03:38:35.347Z,1014.95
2019-04-07T03:39:35.534Z,1014.94
2019-04-07T03:40:35.594Z,1014.90
2019-04-07T03:41:35.269Z,1014.88
2019-04-07T03:42:35.817Z,1014.93
2019-04-07T03:43:35.850Z,1014.91
2019-04-07T03:44:35.282Z,1014.87
2019-04-07T03:45:35.813Z,1014.91
2019-04-07T03:46:35.296Z,1014.90
2019-04-07T03:47:35.510Z,1014.84
2019-04-07T03:48:35.486Z,1014.87
2019-04-07T03:49:35.309Z,1014.81
2019-04-07T03:50:35.314Z,1014.83
2019-04-07T03:51:36.199Z,1014.84
2019-04-07T03:52:35.503Z,1014.81
2019-04-07T03:53:35.669Z,1014.73
2019-04-07T03:54:35.531Z,1014.77
2019-04-07T03:55:36.441Z,1014.76
2019-04-07T03:56:35.819Z,1014.72
2019-04-07T03:57:35.413Z,1014.76
2019-04-07T03:58:36.277Z,1014.72
2019-04-07T03:59:36.399Z,1014.72
2019-04-07T04:00:35.631Z,1014.69
2019-04-07T04:01:35.785Z,1014.68
2019-04-07T04:02:35.375Z,1014.69
2019-04-07T04:03:36.365Z,1014.65
2019-04-07T04:04:36.222Z,1014.68
2019-04-07T04:05:35.918Z,1014.63
2019-04-07T04:06:35.445Z,1014.63
2019-04-07T04:07:37.087Z,1014.59
2019-04-07T04:08:35.405Z,1014.60
2019-04-07T04:09:39.091Z,1014.60
2019-04-07T04:10:36.414Z,1014.58
2019-04-07T04:11:36.158Z,1014.62
2019-04-07T04:12:35.771Z,1014.57
2019-04-07T04:13:35.814Z,1014.55
2019-04-07T04:14:35.437Z,1014.58
2019-04-07T04:15:36.466Z,1014.59
2019-04-07T04:16:36.090Z,1014.54
2019-04-07T04:17:35.451Z,1014.56
2019-04-07T04:18:35.456Z,1014.53
2019-04-07T04:19:36.154Z,1014.51
2019-04-07T04:20:35.468Z,1014.51
2019-04-07T04:21:36.337Z,1014.51
2019-04-07T04:22:35.932Z,1014.52
2019-04-07T04:23:35.695Z,1014.49
2019-04-07T04:24:35.490Z,1014.49
2019-04-07T04:25:35.547Z,1014.48
2019-04-07T04:26:35.832Z,1014.46
2019-04-07T04:27:36.767Z,1014.42
2019-04-07T04:28:35.511Z,1014.45
2019-04-07T04:29:35.515Z,1014.44
2019-04-07T04:30:36.024Z,1014.44
2019-04-07T04:31:35.796Z,1014.45
2019-04-07T04:32:35.530Z,1014.41
2019-04-07T04:33:35.649Z,1014.41
2019-04-07T04:34:35.592Z,1014.39
2019-04-07T04:35:35.554Z,1014.33
2019-04-07T04:36:36.065Z,1014.30
2019-04-07T04:37:42.546Z,1014.35
2019-04-07T04:38:36.453Z,1014.33
2019-04-07T04:39:35.591Z,1014.27
2019-04-07T04:40:36.187Z,1014.25
2019-04-07T04:41:36.364Z,1014.28
2019-04-07T04:42:35.869Z,1014.28
2019-04-07T04:43:36.060Z,1014.28
2019-04-07T04:44:35.944Z,1014.23
2019-04-07T04:45:36.339Z,1014.23
2019-04-07T04:46:36.636Z,1014.26
2019-04-07T04:47:35.613Z,1014.21
2019-04-07T04:48:35.613Z,1014.20
2019-04-07T04:49:35.617Z,1014.24
2019-04-07T04:50:35.623Z,1014.21
2019-04-07T04:51:39.280Z,1014.20
2019-04-07T04:52:36.266Z,1014.18
2019-04-07T04:53:35.637Z,1014.21
2019-04-07T04:54:35.643Z,1014.19
2019-04-07T04:55:35.649Z,1014.19
2019-04-07T04:56:36.137Z,1014.21
2019-04-07T04:57:35.658Z,1014.21
2019-04-07T04:58:36.032Z,1014.21
2019-04-07T04:59:36.592Z,1014.22
2019-04-07T05:00:36.285Z,1014.17
2019-04-07T05:01:36.247Z,1014.19
2019-04-07T05:02:35.684Z,1014.13
2019-04-07T05:03:36.213Z,1014.14
2019-04-07T05:04:35.697Z,1014.16
2019-04-07T05:05:35.707Z,1014.14
2019-04-07T05:06:35.788Z,1014.12
2019-04-07T05:07:48.015Z,1014.11
2019-04-07T05:08:35.975Z,1014.13
2019-04-07T05:09:44.186Z,1014.13
2019-04-07T05:10:35.843Z,1014.12
2019-04-07T05:11:35.930Z,1014.13
2019-04-07T05:12:35.736Z,1014.13
2019-04-07T05:13:35.828Z,1014.12
2019-04-07T05:14:35.746Z,1014.09
2019-04-07T05:15:35.761Z,1014.10
2019-04-07T05:16:35.756Z,1014.11
2019-04-07T05:17:35.760Z,1014.09
2019-04-07T05:18:35.988Z,1014.07
2019-04-07T05:19:35.782Z,1014.09
2019-04-07T05:20:35.982Z,1014.04
2019-04-07T05:21:36.202Z,1014.00
2019-04-07T05:22:35.943Z,1014.00
2019-04-07T05:23:36.013Z,1014.03
2019-04-07T05:24:36.661Z,1014.04
2019-04-07T05:25:36.114Z,1014.07
2019-04-07T05:26:36.487Z,1014.00
2019-04-07T05:27:35.813Z,1014.02
2019-04-07T05:28:36.987Z,1013.97
2019-04-07T05:29:35.824Z,1013.99
2019-04-07T05:30:36.502Z,1013.99
2019-04-07T05:31:35.943Z,1013.96
2019-04-07T05:32:35.837Z,1013.95
2019-04-07T05:33:35.847Z,1013.97
2019-04-07T05:34:36.641Z,1013.98
2019-04-07T05:35:36.309Z,1013.96
2019-04-07T05:36:35.863Z,1014.02
2019-04-07T05:37:35.863Z,1014.02
2019-04-07T05:38:35.869Z,1013.98
2019-04-07T05:39:36.197Z,1014.06
2019-04-07T05:40:35.884Z,1014.01
2019-04-07T05:41:36.312Z,1014.03
2019-04-07T05:42:35.891Z,1014.00
2019-04-07T05:43:35.900Z,1014.00
2019-04-07T05:44:36.402Z,1013.99
2019-04-07T05:45:37.482Z,1013.99
2019-04-07T05:46:40.910Z,1013.96
2019-04-07T05:47:36.528Z,1013.94
2019-04-07T05:48:35.921Z,1013.95
2019-04-07T05:49:36.341Z,1013.93
2019-04-07T05:50:36.059Z,1013.90
2019-04-07T05:51:35.936Z,1013.94
2019-04-07T05:52:39.504Z,1013.92
2019-04-07T05:53:36.084Z,1013.93
2019-04-07T05:54:36.191Z,1013.90
2019-04-07T05:55:35.958Z,1013.89
2019-04-07T05:56:35.963Z,1013.87
2019-04-07T05:57:36.116Z,1013.87
2019-04-07T05:58:38.672Z,1013.87
2019-04-07T05:59:36.504Z,1013.85
2019-04-07T06:00:36.176Z,1013.86
2019-04-07T06:01:36.702Z,1013.85
2019-04-07T06:02:36.333Z,1013.85
2019-04-07T06:03:41.012Z,1013.84
2019-04-07T06:04:36.115Z,1013.86
2019-04-07T06:05:36.782Z,1013.89
2019-04-07T06:06:36.819Z,1013.84
2019-04-07T06:07:37.114Z,1013.84
2019-04-07T06:08:39.193Z,1013.84
2019-04-07T06:09:36.220Z,1013.84
2019-04-07T06:10:36.034Z,1013.85
2019-04-07T06:11:36.240Z,1013.88
2019-04-07T06:12:39.320Z,1013.87
2019-04-07T06:13:36.048Z,1013.87
2019-04-07T06:14:36.782Z,1013.86
2019-04-07T06:15:36.060Z,1013.83
2019-04-07T06:16:36.066Z,1013.82
2019-04-07T06:17:36.752Z,1013.78
2019-04-07T06:18:36.814Z,1013.79
2019-04-07T06:19:40.637Z,1013.78
2019-04-07T06:20:36.086Z,1013.77
2019-04-07T06:21:36.630Z,1013.78
2019-04-07T06:22:36.097Z,1013.77
2019-04-07T06:23:36.430Z,1013.76
2019-04-07T06:24:36.107Z,1013.80
2019-04-07T06:25:40.862Z,1013.75
2019-04-07T06:26:36.430Z,1013.79
2019-04-07T06:27:36.123Z,1013.64
2019-04-07T06:28:36.128Z,1013.74
2019-04-07T06:29:36.608Z,1013.70
2019-04-07T06:30:36.990Z,1013.74
2019-04-07T06:31:36.286Z,1013.74
2019-04-07T06:32:38.408Z,1013.73
2019-04-07T06:33:38.115Z,1013.68
2019-04-07T06:34:39.789Z,1013.74
2019-04-07T06:35:36.568Z,1013.77
2019-04-07T06:36:36.170Z,1013.74
2019-04-07T06:37:36.345Z,1013.74
2019-04-07T06:38:41.584Z,1013.74
2019-04-07T06:39:36.197Z,1013.71
2019-04-07T06:40:36.192Z,1013.72
2019-04-07T06:41:36.753Z,1013.72
2019-04-07T06:42:36.511Z,1013.73
2019-04-07T06:43:38.226Z,1013.66
2019-04-07T06:44:36.805Z,1013.74
2019-04-07T06:45:36.217Z,1013.68
2019-04-07T06:46:36.860Z,1013.67
2019-04-07T06:47:37.088Z,1013.70
2019-04-07T06:48:38.013Z,1013.70
2019-04-07T06:49:36.238Z,1013.72
2019-04-07T06:50:47.525Z,1013.74
2019-04-07T06:51:37.216Z,1013.68
2019-04-07T06:52:40.572Z,1013.70
2019-04-07T06:53:36.434Z,1013.64
2019-04-07T06:54:36.271Z,1013.64
2019-04-07T06:55:36.337Z,1013.66
2019-04-07T06:56:36.999Z,1013.64
2019-04-07T06:57:37.712Z,1013.63
2019-04-07T06:58:40.843Z,1013.65
2019-04-07T06:59:36.291Z,1013.60
2019-04-07T07:00:36.490Z,1013.61
2019-04-07T07:01:36.302Z,1013.58
2019-04-07T07:02:36.829Z,1013.56
2019-04-07T07:03:38.816Z,1013.53
2019-04-07T07:04:36.717Z,1013.54
2019-04-07T07:05:36.323Z,1013.56
2019-04-07T07:06:36.327Z,1013.55
2019-04-07T07:07:36.428Z,1013.54
2019-04-07T07:08:43.752Z,1013.55
2019-04-07T07:09:38.634Z,1013.54
2019-04-07T07:10:38.986Z,1013.53
2019-04-07T07:11:40.849Z,1013.54
2019-04-07T07:12:39.156Z,1013.57
2019-04-07T07:13:36.790Z,1013.58
2019-04-07T07:14:43.294Z,1013.60
2019-04-07T07:15:37.168Z,1013.61
2019-04-07T07:16:41.310Z,1013.57
2019-04-07T07:17:36.542Z,1013.59
2019-04-07T07:18:36.435Z,1013.57
2019-04-07T07:19:36.397Z,1013.56
2019-04-07T07:20:37.273Z,1013.62
2019-04-07T07:21:39.306Z,1013.58
2019-04-07T07:22:36.411Z,1013.54
2019-04-07T07:23:36.472Z,1013.59
2019-04-07T07:24:36.959Z,1013.55
2019-04-07T07:25:36.430Z,1013.59
2019-04-07T07:26:36.667Z,1013.54
2019-04-07T07:27:39.034Z,1013.56
2019-04-07T07:28:36.760Z,1013.54
2019-04-07T07:29:36.451Z,1013.51
2019-04-07T07:30:37.114Z,1013.53
2019-04-07T07:31:36.897Z,1013.48
2019-04-07T07:32:37.309Z,1013.52
2019-04-07T07:33:38.405Z,1013.52
2019-04-07T07:34:39.818Z,1013.53
2019-04-07T07:35:36.482Z,1013.51
2019-04-07T07:36:37.093Z,1013.52
2019-04-07T07:37:36.491Z,1013.51
2019-04-07T07:38:36.496Z,1013.53
2019-04-07T07:39:36.560Z,1013.49
2019-04-07T07:40:36.508Z,1013.47
2019-04-07T07:41:36.602Z,1013.50
2019-04-07T07:42:36.627Z,1013.48
2019-04-07T07:43:36.990Z,1013.49
2019-04-07T07:44:38.389Z,1013.50
2019-04-07T07:45:37.179Z,1013.45
2019-04-07T07:46:36.540Z,1013.46
2019-04-07T07:47:37.134Z,1013.42
2019-04-07T07:48:36.861Z,1013.42
2019-04-07T07:49:40.092Z,1013.43
2019-04-07T07:50:38.089Z,1013.45
2019-04-07T07:51:38.648Z,1013.38
2019-04-07T07:52:36.572Z,1013.35
2019-04-07T07:53:37.259Z,1013.37
2019-04-07T07:54:36.813Z,1013.36
2019-04-07T07:55:37.862Z,1013.36
2019-04-07T07:56:36.756Z,1013.34
2019-04-07T07:57:37.076Z,1013.37
2019-04-07T07:58:36.602Z,1013.35
2019-04-07T07:59:38.981Z,1013.31
2019-04-07T08:00:39.837Z,1013.30
2019-04-07T08:01:37.323Z,1013.30
2019-04-07T08:02:36.622Z,1013.23
2019-04-07T08:03:36.631Z,1013.23
2019-04-07T08:04:36.669Z,1013.22
2019-04-07T08:05:36.670Z,1013.21
2019-04-07T08:06:38.527Z,1013.25
2019-04-07T08:07:36.650Z,1013.24
2019-04-07T08:08:37.275Z,1013.18
2019-04-07T08:09:37.044Z,1013.21
2019-04-07T08:10:37.567Z,1013.22
2019-04-07T08:11:37.373Z,1013.22
2019-04-07T08:12:36.678Z,1013.21
2019-04-07T08:13:42.127Z,1013.24
2019-04-07T08:14:37.125Z,1013.23
2019-04-07T08:15:36.693Z,1013.21
2019-04-07T08:16:37.357Z,1013.20
2019-04-07T08:17:36.703Z,1013.19
2019-04-07T08:18:39.387Z,1013.18
2019-04-07T08:19:40.704Z,1013.21
2019-04-07T08:20:37.369Z,1013.19
2019-04-07T08:21:36.954Z,1013.14
2019-04-07T08:22:42.866Z,1013.16
2019-04-07T08:23:37.381Z,1013.17
2019-04-07T08:24:37.267Z,1013.12
2019-04-07T08:25:36.898Z,1013.16
2019-04-07T08:26:36.750Z,1013.14
2019-04-07T08:27:36.758Z,1013.16
2019-04-07T08:28:36.907Z,1013.11
2019-04-07T08:29:37.564Z,1013.08
2019-04-07T08:30:37.205Z,1013.04
2019-04-07T08:31:37.275Z,1013.00
2019-04-07T08:32:36.785Z,1013.01
2019-04-07T08:33:37.426Z,1013.00
2019-04-07T08:34:37.184Z,1013.02
2019-04-07T08:35:39.482Z,1012.99
2019-04-07T08:36:36.805Z,1012.99
2019-04-07T08:37:36.810Z,1013.00
2019-04-07T08:38:37.593Z,1012.93
2019-04-07T08:39:37.525Z,1012.96
2019-04-07T08:40:38.912Z,1012.92
2019-04-07T08:41:39.157Z,1012.93
2019-04-07T08:42:37.025Z,1012.88
2019-04-07T08:43:37.359Z,1012.87
2019-04-07T08:44:37.014Z,1012.88
2019-04-07T08:45:37.127Z,1012.85
2019-04-07T08:46:41.624Z,1012.82
2019-04-07T08:47:36.865Z,1012.82
2019-04-07T08:48:37.451Z,1012.82
2019-04-07T08:49:36.874Z,1012.83
2019-04-07T08:50:37.450Z,1012.77
2019-04-07T08:51:36.886Z,1012.82
2019-04-07T08:52:40.594Z,1012.80
2019-04-07T08:53:37.714Z,1012.79
2019-04-07T08:54:36.913Z,1012.77
2019-04-07T08:55:36.908Z,1012.75
2019-04-07T08:56:37.681Z,1012.76
2019-04-07T08:57:37.070Z,1012.76
2019-04-07T08:58:38.730Z,1012.75
2019-04-07T08:59:39.897Z,1012.75
2019-04-07T09:00:37.260Z,1012.74
2019-04-07T09:01:37.192Z,1012.75
2019-04-07T09:02:37.100Z,1012.74
2019-04-07T09:03:36.950Z,1012.75
2019-04-07T09:04:37.011Z,1012.73
2019-04-07T09:05:37.081Z,1012.78
2019-04-07T09:06:37.472Z,1012.76
2019-04-07T09:07:36.972Z,1012.73
2019-04-07T09:08:38.181Z,1012.67
2019-04-07T09:09:42.790Z,1012.73
2019-04-07T09:10:37.218Z,1012.70
2019-04-07T09:11:39.980Z,1012.67
2019-04-07T09:12:36.999Z,1012.65
2019-04-07T09:13:37.327Z,1012.63
2019-04-07T09:14:39.487Z,1012.62
2019-04-07T09:15:37.016Z,1012.57
2019-04-07T09:16:37.027Z,1012.56
2019-04-07T09:17:43.674Z,1012.54
2019-04-07T09:18:37.381Z,1012.57
2019-04-07T09:19:37.038Z,1012.53
2019-04-07T09:20:40.286Z,1012.53
2019-04-07T09:21:40.900Z,1012.49
2019-04-07T09:22:37.754Z,1012.53
2019-04-07T09:23:37.060Z,1012.49
2019-04-07T09:24:37.115Z,1012.52
2019-04-07T09:25:40.013Z,1012.45
2019-04-07T09:26:40.580Z,1012.46
2019-04-07T09:27:37.454Z,1012.41
2019-04-07T09:28:37.784Z,1012.41
2019-04-07T09:29:37.659Z,1012.44
2019-04-07T09:30:37.870Z,1012.42
2019-04-07T09:31:37.104Z,1012.43
2019-04-07T09:32:37.112Z,1012.41
2019-04-07T09:33:38.095Z,1012.37
2019-04-07T09:34:37.986Z,1012.33
2019-04-07T09:35:37.672Z,1012.30
2019-04-07T09:36:37.414Z,1012.25
2019-04-07T09:37:37.779Z,1012.24
2019-04-07T09:38:37.143Z,1012.22
2019-04-07T09:39:52.803Z,1012.19
2019-04-07T09:40:37.223Z,1012.20
2019-04-07T09:41:38.340Z,1012.22
2019-04-07T09:42:37.859Z,1012.21
2019-04-07T09:43:37.170Z,1012.21
2019-04-07T09:44:37.768Z,1012.24
2019-04-07T09:45:39.405Z,1012.23
2019-04-07T09:46:39.621Z,1012.25
2019-04-07T09:47:37.978Z,1012.20
2019-04-07T09:48:39.419Z,1012.20
2019-04-07T09:49:37.882Z,1012.19
2019-04-07T09:50:37.562Z,1012.17
2019-04-07T09:51:40.375Z,1012.21
2019-04-07T09:52:37.221Z,1012.16
2019-04-07T09:53:37.228Z,1012.21
2019-04-07T09:54:37.344Z,1012.21
2019-04-07T09:55:37.849Z,1012.19
2019-04-07T09:56:37.509Z,1012.19
2019-04-07T09:57:38.932Z,1012.24
2019-04-07T09:58:39.323Z,1012.17
2019-04-07T09:59:37.558Z,1012.21
2019-04-07T10:00:37.268Z,1012.18
2019-04-07T10:01:37.272Z,1012.19
2019-04-07T10:02:37.325Z,1012.17
2019-04-07T10:03:38.146Z,1012.19
2019-04-07T10:04:38.602Z,1012.18
2019-04-07T10:05:40.204Z,1012.17
2019-04-07T10:06:39.147Z,1012.15
2019-04-07T10:07:40.238Z,1012.16
2019-04-07T10:08:37.422Z,1012.11
2019-04-07T10:09:37.966Z,1012.15
2019-04-07T10:10:37.325Z,1012.12
2019-04-07T10:11:37.390Z,1012.07
2019-04-07T10:12:37.352Z,1012.07
2019-04-07T10:13:37.340Z,1012.08
2019-04-07T10:14:37.577Z,1012.05
2019-04-07T10:15:37.495Z,1012.08
2019-04-07T10:16:37.358Z,1012.03
2019-04-07T10:17:37.364Z,1012.04
2019-04-07T10:18:38.295Z,1012.03
2019-04-07T10:19:37.476Z,1012.02
2019-04-07T10:20:37.381Z,1012.05
2019-04-07T10:21:38.225Z,1011.98
2019-04-07T10:22:37.464Z,1012.05
2019-04-07T10:23:37.573Z,1012.01
2019-04-07T10:24:37.415Z,1011.96
2019-04-07T10:25:37.411Z,1012.00
2019-04-07T10:26:38.000Z,1011.94
2019-04-07T10:27:38.253Z,1011.88
2019-04-07T10:28:40.204Z,1011.88
2019-04-07T10:29:37.681Z,1011.84
2019-04-07T10:30:38.141Z,1011.83
2019-04-07T10:31:37.830Z,1011.81
2019-04-07T10:32:37.452Z,1011.82
2019-04-07T10:33:37.823Z,1011.76
2019-04-07T10:34:37.547Z,1011.79
2019-04-07T10:35:37.467Z,1011.81
2019-04-07T10:36:37.511Z,1011.80
2019-04-07T10:37:37.900Z,1011.78
2019-04-07T10:38:37.485Z,1011.78
2019-04-07T10:39:38.120Z,1011.72
2019-04-07T10:40:37.947Z,1011.78
2019-04-07T10:41:38.135Z,1011.75
2019-04-07T10:42:38.054Z,1011.75
2019-04-07T10:43:37.516Z,1011.74
2019-04-07T10:44:37.822Z,1011.73
2019-04-07T10:45:38.262Z,1011.73
2019-04-07T10:46:37.578Z,1011.70
2019-04-07T10:47:38.397Z,1011.70
2019-04-07T10:48:37.930Z,1011.70
2019-04-07T10:49:38.124Z,1011.66
2019-04-07T10:50:37.905Z,1011.60
2019-04-07T10:51:37.565Z,1011.65
2019-04-07T10:52:37.808Z,1011.67
2019-04-07T10:53:37.575Z,1011.60
2019-04-07T10:54:38.192Z,1011.56
2019-04-07T10:55:38.046Z,1011.55
2019-04-07T10:56:37.593Z,1011.57
2019-04-07T10:57:37.876Z,1011.58
2019-04-07T10:58:37.902Z,1011.58
2019-04-07T10:59:37.609Z,1011.54
2019-04-07T11:00:42.204Z,1011.54
2019-04-07T11:01:37.913Z,1011.53
2019-04-07T11:02:37.638Z,1011.50
2019-04-07T11:03:37.911Z,1011.45
2019-04-07T11:04:37.658Z,1011.49
2019-04-07T11:05:38.330Z,1011.39
2019-04-07T11:06:38.350Z,1011.39
2019-04-07T11:07:38.236Z,1011.41
2019-04-07T11:08:37.664Z,1011.40
2019-04-07T11:09:37.670Z,1011.39
2019-04-07T11:10:39.386Z,1011.41
2019-04-07T11:11:37.887Z,1011.40
2019-04-07T11:12:37.884Z,1011.38
2019-04-07T11:13:37.694Z,1011.39
2019-04-07T11:14:38.425Z,1011.33
2019-04-07T11:15:38.222Z,1011.31
2019-04-07T11:16:37.729Z,1011.29
2019-04-07T11:17:38.305Z,1011.30
2019-04-07T11:18:38.249Z,1011.24
2019-04-07T11:19:37.810Z,1011.28
2019-04-07T11:20:38.426Z,1011.18
2019-04-07T11:21:37.740Z,1011.19
2019-04-07T11:22:37.752Z,1011.20
2019-04-07T11:23:37.755Z,1011.25
2019-04-07T11:24:38.087Z,1011.23
2019-04-07T11:25:38.471Z,1011.20
2019-04-07T11:26:38.565Z,1011.14
2019-04-07T11:27:37.777Z,1011.17
2019-04-07T11:28:37.975Z,1011.14
2019-04-07T11:29:39.601Z,1011.13
2019-04-07T11:30:37.795Z,1011.14
2019-04-07T11:31:38.518Z,1011.16
2019-04-07T11:32:37.929Z,1011.13
2019-04-07T11:33:38.073Z,1011.10
2019-04-07T11:34:37.834Z,1011.06
2019-04-07T11:35:37.825Z,1011.04
2019-04-07T11:36:38.570Z,1011.07
2019-04-07T11:37:37.865Z,1011.10
2019-04-07T11:38:38.565Z,1011.04
2019-04-07T11:39:37.849Z,1011.12
2019-04-07T11:40:44.498Z,1011.00
2019-04-07T11:41:37.860Z,1011.06
2019-04-07T11:42:37.866Z,1011.00
2019-04-07T11:43:38.069Z,1011.07
2019-04-07T11:44:37.879Z,1010.91
2019-04-07T11:45:37.883Z,1010.95
2019-04-07T11:46:37.891Z,1010.95
2019-04-07T11:47:38.068Z,1010.93
2019-04-07T11:48:38.367Z,1010.89
2019-04-07T11:49:40.791Z,1010.94
2019-04-07T11:50:37.916Z,1010.87
2019-04-07T11:51:37.963Z,1010.89
2019-04-07T11:52:37.925Z,1010.87
2019-04-07T11:53:38.273Z,1010.88
2019-04-07T11:54:38.162Z,1010.88
2019-04-07T11:55:38.693Z,1010.80
2019-04-07T11:56:38.270Z,1010.84
2019-04-07T11:57:41.166Z,1010.85
2019-04-07T11:58:38.675Z,1010.78
2019-04-07T11:59:37.966Z,1010.75
2019-04-07T12:00:39.802Z,1010.81
2019-04-07T12:01:38.248Z,1010.78
2019-04-07T12:02:40.437Z,1010.74
2019-04-07T12:03:38.691Z,1010.76
2019-04-07T12:04:38.037Z,1010.70
2019-04-07T12:05:38.001Z,1010.71